sensor_id;sensor_type;location;lat;lon;timestamp;temperature;humidity
48488;DHT22;34289;48.572;13.378;2022-08-21T00:02:13;17.50;99.90
48488;DHT22;34289;48.572;13.378;2022-08-21T00:04:39;17.50;99.90
48488;DHT22;34289;48.572;13.378;2022-08-21T00:07:05;17.50;99.90
48488;DHT22;34289;48.572;13.378;2022-08-21T00:09:31;17.40;99.90
48488;DHT22;34289;48.572;13.378;2022-08-21T00:11:56;17.50;99.90
48488;DHT22;34289;48.572;13.378;2022-08-21T00:14:22;17.40;99.90
48488;DHT22;34289;48.572;13.378;2022-08-21T00:16:48;17.50;99.90
48488;DHT22;34289;48.572;13.378;2022-08-21T00:19:13;17.50;99.90
48488;DHT22;34289;48.572;13.378;2022-08-21T00:21:41;17.50;99.90
48488;DHT22;34289;48.572;13.378;2022-08-21T00:24:07;17.50;99.90
48488;DHT22;34289;48.572;13.378;2022-08-21T00:26:33;17.50;99.90
48488;DHT22;34289;48.572;13.378;2022-08-21T00:28:58;17.50;99.90
48488;DHT22;34289;48.572;13.378;2022-08-21T00:31:24;17.40;99.90
48488;DHT22;34289;48.572;13.378;2022-08-21T00:33:49;17.40;99.90
48488;DHT22;34289;48.572;13.378;2022-08-21T00:36:15;17.40;99.90
48488;DHT22;34289;48.572;13.378;2022-08-21T00:38:40;17.40;99.90
48488;DHT22;34289;48.572;13.378;2022-08-21T00:41:07;17.40;99.90
48488;DHT22;34289;48.572;13.378;2022-08-21T00:43:33;17.40;99.90
48488;DHT22;34289;48.572;13.378;2022-08-21T00:45:59;17.40;99.90
48488;DHT22;34289;48.572;13.378;2022-08-21T00:48:25;17.40;99.90
48488;DHT22;34289;48.572;13.378;2022-08-21T00:53:22;17.40;99.90
48488;DHT22;34289;48.572;13.378;2022-08-21T00:55:48;17.50;99.90
48488;DHT22;34289;48.572;13.378;2022-08-21T00:58:14;17.40;99.90
48488;DHT22;34289;48.572;13.378;2022-08-21T01:00:41;17.40;99.90
48488;DHT22;34289;48.572;13.378;2022-08-21T01:03:09;17.40;99.90
48488;DHT22;34289;48.572;13.378;2022-08-21T01:05:36;17.40;99.90
48488;DHT22;34289;48.572;13.378;2022-08-21T01:08:01;17.40;99.90
48488;DHT22;34289;48.572;13.378;2022-08-21T01:10:27;17.40;99.90
48488;DHT22;34289;48.572;13.378;2022-08-21T01:12:53;17.40;99.90
48488;DHT22;34289;48.572;13.378;2022-08-21T01:15:20;17.40;99.90
48488;DHT22;34289;48.572;13.378;2022-08-21T01:17:47;17.50;99.90
48488;DHT22;34289;48.572;13.378;2022-08-21T01:20:12;17.50;99.90
48488;DHT22;34289;48.572;13.378;2022-08-21T01:22:38;17.50;99.90
48488;DHT22;34289;48.572;13.378;2022-08-21T01:25:04;17.40;99.90
48488;DHT22;34289;48.572;13.378;2022-08-21T01:27:30;17.50;99.90
48488;DHT22;34289;48.572;13.378;2022-08-21T01:29:57;17.50;99.90
48488;DHT22;34289;48.572;13.378;2022-08-21T01:32:23;17.50;99.90
48488;DHT22;34289;48.572;13.378;2022-08-21T01:34:49;17.50;99.90
48488;DHT22;34289;48.572;13.378;2022-08-21T01:37:15;17.50;99.90
48488;DHT22;34289;48.572;13.378;2022-08-21T01:39:42;17.50;99.90
48488;DHT22;34289;48.572;13.378;2022-08-21T01:42:07;17.50;99.90
48488;DHT22;34289;48.572;13.378;2022-08-21T01:44:33;17.60;99.90
48488;DHT22;34289;48.572;13.378;2022-08-21T01:47:01;17.60;99.90
48488;DHT22;34289;48.572;13.378;2022-08-21T01:49:27;17.50;99.90
48488;DHT22;34289;48.572;13.378;2022-08-21T01:51:52;17.50;99.90
48488;DHT22;34289;48.572;13.378;2022-08-21T01:54:18;17.50;99.90
48488;DHT22;34289;48.572;13.378;2022-08-21T01:56:45;17.50;99.90
48488;DHT22;34289;48.572;13.378;2022-08-21T01:59:12;17.50;99.90
48488;DHT22;34289;48.572;13.378;2022-08-21T02:01:37;17.50;99.90
48488;DHT22;34289;48.572;13.378;2022-08-21T02:04:05;17.50;99.90
48488;DHT22;34289;48.572;13.378;2022-08-21T02:06:30;17.50;99.90
48488;DHT22;34289;48.572;13.378;2022-08-21T02:08:56;17.40;99.90
48488;DHT22;34289;48.572;13.378;2022-08-21T02:11:21;17.50;99.90
48488;DHT22;34289;48.572;13.378;2022-08-21T02:13:47;17.50;99.90
48488;DHT22;34289;48.572;13.378;2022-08-21T02:16:13;17.40;99.90
48488;DHT22;34289;48.572;13.378;2022-08-21T02:18:39;17.40;99.90
48488;DHT22;34289;48.572;13.378;2022-08-21T02:21:05;17.40;99.90
48488;DHT22;34289;48.572;13.378;2022-08-21T02:23:31;17.40;99.90
48488;DHT22;34289;48.572;13.378;2022-08-21T02:25:57;17.50;99.90
48488;DHT22;34289;48.572;13.378;2022-08-21T02:28:23;17.40;99.90
48488;DHT22;34289;48.572;13.378;2022-08-21T02:30:49;17.40;99.90
48488;DHT22;34289;48.572;13.378;2022-08-21T02:33:15;17.40;99.90
48488;DHT22;34289;48.572;13.378;2022-08-21T02:35:41;17.40;99.90
48488;DHT22;34289;48.572;13.378;2022-08-21T02:38:09;17.40;99.90
48488;DHT22;34289;48.572;13.378;2022-08-21T02:40:36;17.30;99.90
48488;DHT22;34289;48.572;13.378;2022-08-21T02:43:02;17.40;99.90
48488;DHT22;34289;48.572;13.378;2022-08-21T02:45:28;17.30;99.90
48488;DHT22;34289;48.572;13.378;2022-08-21T02:47:55;17.30;99.90
48488;DHT22;34289;48.572;13.378;2022-08-21T02:50:22;17.40;99.90
48488;DHT22;34289;48.572;13.378;2022-08-21T02:52:48;17.40;99.90
48488;DHT22;34289;48.572;13.378;2022-08-21T02:55:14;17.40;99.90
48488;DHT22;34289;48.572;13.378;2022-08-21T02:57:40;17.40;99.90
48488;DHT22;34289;48.572;13.378;2022-08-21T03:00:06;17.40;99.90
48488;DHT22;34289;48.572;13.378;2022-08-21T03:02:32;17.40;99.90
48488;DHT22;34289;48.572;13.378;2022-08-21T03:04:59;17.40;99.90
48488;DHT22;34289;48.572;13.378;2022-08-21T03:07:25;17.40;99.90
48488;DHT22;34289;48.572;13.378;2022-08-21T03:09:51;17.40;99.90
48488;DHT22;34289;48.572;13.378;2022-08-21T03:12:17;17.40;99.90
48488;DHT22;34289;48.572;13.378;2022-08-21T03:14:42;17.40;99.90
48488;DHT22;34289;48.572;13.378;2022-08-21T03:17:08;17.40;99.90
48488;DHT22;34289;48.572;13.378;2022-08-21T03:19:34;17.40;99.90
48488;DHT22;34289;48.572;13.378;2022-08-21T03:22:00;17.40;99.90
48488;DHT22;34289;48.572;13.378;2022-08-21T03:24:25;17.40;99.90
48488;DHT22;34289;48.572;13.378;2022-08-21T03:26:51;17.40;99.90
48488;DHT22;34289;48.572;13.378;2022-08-21T03:29:16;17.50;99.90
48488;DHT22;34289;48.572;13.378;2022-08-21T03:31:42;17.50;99.90
48488;DHT22;34289;48.572;13.378;2022-08-21T03:34:07;17.50;99.90
48488;DHT22;34289;48.572;13.378;2022-08-21T03:36:33;17.50;99.90
48488;DHT22;34289;48.572;13.378;2022-08-21T03:38:58;17.50;99.90
48488;DHT22;34289;48.572;13.378;2022-08-21T03:41:24;17.50;99.90
48488;DHT22;34289;48.572;13.378;2022-08-21T03:43:49;17.50;99.90
48488;DHT22;34289;48.572;13.378;2022-08-21T03:46:15;17.50;99.90
48488;DHT22;34289;48.572;13.378;2022-08-21T03:48:41;17.50;99.90
48488;DHT22;34289;48.572;13.378;2022-08-21T03:51:06;17.50;99.90
48488;DHT22;34289;48.572;13.378;2022-08-21T03:53:32;17.50;99.90
48488;DHT22;34289;48.572;13.378;2022-08-21T03:55:57;17.50;99.90
48488;DHT22;34289;48.572;13.378;2022-08-21T03:58:24;17.50;99.90
48488;DHT22;34289;48.572;13.378;2022-08-21T04:00:50;17.50;99.90
48488;DHT22;34289;48.572;13.378;2022-08-21T04:03:17;17.50;99.90
48488;DHT22;34289;48.572;13.378;2022-08-21T04:05:42;17.60;99.90
48488;DHT22;34289;48.572;13.378;2022-08-21T04:08:10;17.50;99.90
48488;DHT22;34289;48.572;13.378;2022-08-21T04:10:36;17.50;99.90
48488;DHT22;34289;48.572;13.378;2022-08-21T04:13:03;17.50;99.90
48488;DHT22;34289;48.572;13.378;2022-08-21T04:15:29;17.50;99.90
48488;DHT22;34289;48.572;13.378;2022-08-21T04:17:54;17.50;99.90
48488;DHT22;34289;48.572;13.378;2022-08-21T04:20:20;17.50;99.90
48488;DHT22;34289;48.572;13.378;2022-08-21T04:22:47;17.60;99.90
48488;DHT22;34289;48.572;13.378;2022-08-21T04:25:13;17.50;99.90
48488;DHT22;34289;48.572;13.378;2022-08-21T04:27:39;17.50;99.90
48488;DHT22;34289;48.572;13.378;2022-08-21T04:30:05;17.50;99.90
48488;DHT22;34289;48.572;13.378;2022-08-21T04:32:31;17.50;99.90
48488;DHT22;34289;48.572;13.378;2022-08-21T04:34:58;17.50;99.90
48488;DHT22;34289;48.572;13.378;2022-08-21T04:37:23;17.50;99.90
48488;DHT22;34289;48.572;13.378;2022-08-21T04:39:49;17.60;99.90
48488;DHT22;34289;48.572;13.378;2022-08-21T04:42:15;17.50;99.90
48488;DHT22;34289;48.572;13.378;2022-08-21T04:44:40;17.50;99.90
48488;DHT22;34289;48.572;13.378;2022-08-21T04:47:06;17.50;99.90
48488;DHT22;34289;48.572;13.378;2022-08-21T04:49:32;17.50;99.90
48488;DHT22;34289;48.572;13.378;2022-08-21T04:51:58;17.50;99.90
48488;DHT22;34289;48.572;13.378;2022-08-21T04:54:24;17.50;99.90
48488;DHT22;34289;48.572;13.378;2022-08-21T04:56:51;17.60;99.90
48488;DHT22;34289;48.572;13.378;2022-08-21T04:59:20;17.50;99.90
48488;DHT22;34289;48.572;13.378;2022-08-21T05:01:46;17.60;99.90
48488;DHT22;34289;48.572;13.378;2022-08-21T05:04:13;17.60;99.90
48488;DHT22;34289;48.572;13.378;2022-08-21T05:06:39;17.60;99.90
48488;DHT22;34289;48.572;13.378;2022-08-21T05:09:06;17.60;99.90
48488;DHT22;34289;48.572;13.378;2022-08-21T05:11:34;17.70;99.90
48488;DHT22;34289;48.572;13.378;2022-08-21T05:14:00;17.80;99.90
48488;DHT22;34289;48.572;13.378;2022-08-21T05:16:26;17.80;99.90
48488;DHT22;34289;48.572;13.378;2022-08-21T05:18:51;17.80;99.90
48488;DHT22;34289;48.572;13.378;2022-08-21T05:21:17;17.80;99.90
48488;DHT22;34289;48.572;13.378;2022-08-21T05:23:42;17.90;99.90
48488;DHT22;34289;48.572;13.378;2022-08-21T05:26:08;17.90;99.90
48488;DHT22;34289;48.572;13.378;2022-08-21T05:28:37;17.80;99.90
48488;DHT22;34289;48.572;13.378;2022-08-21T05:31:02;17.90;99.90
48488;DHT22;34289;48.572;13.378;2022-08-21T05:33:28;17.90;99.90
48488;DHT22;34289;48.572;13.378;2022-08-21T05:35:53;17.90;99.90
48488;DHT22;34289;48.572;13.378;2022-08-21T05:38:21;17.90;99.90
48488;DHT22;34289;48.572;13.378;2022-08-21T05:40:46;18.00;99.90
48488;DHT22;34289;48.572;13.378;2022-08-21T05:43:12;18.10;99.90
48488;DHT22;34289;48.572;13.378;2022-08-21T05:45:37;18.10;99.90
48488;DHT22;34289;48.572;13.378;2022-08-21T05:48:07;18.10;99.90
48488;DHT22;34289;48.572;13.378;2022-08-21T05:50:32;18.20;99.90
48488;DHT22;34289;48.572;13.378;2022-08-21T05:52:58;18.30;99.90
48488;DHT22;34289;48.572;13.378;2022-08-21T05:55:23;18.40;99.90
48488;DHT22;34289;48.572;13.378;2022-08-21T05:57:49;18.40;99.90
48488;DHT22;34289;48.572;13.378;2022-08-21T06:00:15;18.40;99.90
48488;DHT22;34289;48.572;13.378;2022-08-21T06:02:41;18.40;99.90
48488;DHT22;34289;48.572;13.378;2022-08-21T06:05:07;18.50;99.90
48488;DHT22;34289;48.572;13.378;2022-08-21T06:07:33;18.60;99.90
48488;DHT22;34289;48.572;13.378;2022-08-21T06:09:58;18.50;99.90
48488;DHT22;34289;48.572;13.378;2022-08-21T06:12:24;18.40;99.90
48488;DHT22;34289;48.572;13.378;2022-08-21T06:14:50;18.40;99.90
48488;DHT22;34289;48.572;13.378;2022-08-21T06:17:17;18.50;99.90
48488;DHT22;34289;48.572;13.378;2022-08-21T06:19:42;18.40;99.90
48488;DHT22;34289;48.572;13.378;2022-08-21T06:22:08;18.40;99.90
48488;DHT22;34289;48.572;13.378;2022-08-21T06:24:34;18.50;99.90
48488;DHT22;34289;48.572;13.378;2022-08-21T06:27:03;18.50;99.90
48488;DHT22;34289;48.572;13.378;2022-08-21T06:29:29;18.30;99.90
48488;DHT22;34289;48.572;13.378;2022-08-21T06:31:54;18.30;99.90
48488;DHT22;34289;48.572;13.378;2022-08-21T06:34:21;18.20;99.90
48488;DHT22;34289;48.572;13.378;2022-08-21T06:36:46;18.10;99.90
48488;DHT22;34289;48.572;13.378;2022-08-21T06:39:12;18.20;99.90
48488;DHT22;34289;48.572;13.378;2022-08-21T06:41:38;18.20;99.90
48488;DHT22;34289;48.572;13.378;2022-08-21T06:44:04;18.20;99.90
48488;DHT22;34289;48.572;13.378;2022-08-21T06:46:30;19.20;99.90
48488;DHT22;34289;48.572;13.378;2022-08-21T06:48:56;18.30;99.90
48488;DHT22;34289;48.572;13.378;2022-08-21T06:51:21;18.40;99.90
48488;DHT22;34289;48.572;13.378;2022-08-21T06:53:47;18.50;99.90
48488;DHT22;34289;48.572;13.378;2022-08-21T06:56:13;18.50;99.90
48488;DHT22;34289;48.572;13.378;2022-08-21T06:58:39;18.60;99.90
48488;DHT22;34289;48.572;13.378;2022-08-21T07:01:04;18.60;99.90
48488;DHT22;34289;48.572;13.378;2022-08-21T07:03:35;18.70;99.90
48488;DHT22;34289;48.572;13.378;2022-08-21T07:06:01;18.70;99.90
48488;DHT22;34289;48.572;13.378;2022-08-21T07:08:27;18.70;99.90
48488;DHT22;34289;48.572;13.378;2022-08-21T07:10:53;18.80;99.90
48488;DHT22;34289;48.572;13.378;2022-08-21T07:13:20;18.80;99.90
48488;DHT22;34289;48.572;13.378;2022-08-21T07:15:45;18.90;99.90
48488;DHT22;34289;48.572;13.378;2022-08-21T07:18:11;19.00;99.90
48488;DHT22;34289;48.572;13.378;2022-08-21T07:20:37;19.10;99.90
48488;DHT22;34289;48.572;13.378;2022-08-21T07:23:04;19.20;99.90
48488;DHT22;34289;48.572;13.378;2022-08-21T07:25:30;19.30;99.90
48488;DHT22;34289;48.572;13.378;2022-08-21T07:27:56;19.40;99.90
48488;DHT22;34289;48.572;13.378;2022-08-21T07:30:22;19.30;99.90
48488;DHT22;34289;48.572;13.378;2022-08-21T07:32:48;19.30;99.90
48488;DHT22;34289;48.572;13.378;2022-08-21T07:35:17;19.30;99.90
48488;DHT22;34289;48.572;13.378;2022-08-21T07:37:43;19.50;99.90
48488;DHT22;34289;48.572;13.378;2022-08-21T07:40:08;19.50;99.90
48488;DHT22;34289;48.572;13.378;2022-08-21T07:42:34;19.70;99.90
48488;DHT22;34289;48.572;13.378;2022-08-21T07:44:59;19.70;99.90
48488;DHT22;34289;48.572;13.378;2022-08-21T07:47:26;19.80;99.90
48488;DHT22;34289;48.572;13.378;2022-08-21T07:49:51;19.80;99.90
48488;DHT22;34289;48.572;13.378;2022-08-21T07:52:17;20.00;99.90
48488;DHT22;34289;48.572;13.378;2022-08-21T07:54:42;20.00;99.90
48488;DHT22;34289;48.572;13.378;2022-08-21T07:57:08;20.10;99.90
48488;DHT22;34289;48.572;13.378;2022-08-21T07:59:33;20.10;99.90
48488;DHT22;34289;48.572;13.378;2022-08-21T08:01:59;20.00;99.90
48488;DHT22;34289;48.572;13.378;2022-08-21T08:04:24;20.10;99.90
48488;DHT22;34289;48.572;13.378;2022-08-21T08:06:50;20.20;99.90
48488;DHT22;34289;48.572;13.378;2022-08-21T08:09:15;20.20;99.90
48488;DHT22;34289;48.572;13.378;2022-08-21T08:11:42;20.10;99.90
48488;DHT22;34289;48.572;13.378;2022-08-21T08:14:09;20.10;99.90
48488;DHT22;34289;48.572;13.378;2022-08-21T08:16:34;20.00;99.90
48488;DHT22;34289;48.572;13.378;2022-08-21T08:21:29;20.30;99.90
48488;DHT22;34289;48.572;13.378;2022-08-21T08:23:54;20.40;99.90
48488;DHT22;34289;48.572;13.378;2022-08-21T08:26:20;20.50;99.90
48488;DHT22;34289;48.572;13.378;2022-08-21T08:28:46;20.60;99.90
48488;DHT22;34289;48.572;13.378;2022-08-21T08:31:13;20.60;99.90
48488;DHT22;34289;48.572;13.378;2022-08-21T08:33:39;20.60;99.90
48488;DHT22;34289;48.572;13.378;2022-08-21T08:36:05;20.60;99.90
48488;DHT22;34289;48.572;13.378;2022-08-21T08:38:30;20.40;99.90
48488;DHT22;34289;48.572;13.378;2022-08-21T08:41:07;20.40;99.90
48488;DHT22;34289;48.572;13.378;2022-08-21T08:43:38;20.50;99.90
48488;DHT22;34289;48.572;13.378;2022-08-21T08:46:12;20.60;99.90
48488;DHT22;34289;48.572;13.378;2022-08-21T08:48:58;20.80;99.90
48488;DHT22;34289;48.572;13.378;2022-08-21T08:51:51;20.90;99.90
48488;DHT22;34289;48.572;13.378;2022-08-21T08:54:42;20.80;99.90
48488;DHT22;34289;48.572;13.378;2022-08-21T08:57:18;20.50;99.90
48488;DHT22;34289;48.572;13.378;2022-08-21T08:59:47;20.50;99.90
48488;DHT22;34289;48.572;13.378;2022-08-21T09:02:15;20.50;99.90
48488;DHT22;34289;48.572;13.378;2022-08-21T09:04:42;20.80;99.90
48488;DHT22;34289;48.572;13.378;2022-08-21T09:07:25;21.00;99.90
48488;DHT22;34289;48.572;13.378;2022-08-21T09:10:11;21.10;99.90
48488;DHT22;34289;48.572;13.378;2022-08-21T09:21:06;21.60;99.90
48488;DHT22;34289;48.572;13.378;2022-08-21T09:26:16;21.60;99.90
48488;DHT22;34289;48.572;13.378;2022-08-21T09:28:43;21.80;99.90
48488;DHT22;34289;48.572;13.378;2022-08-21T09:31:30;21.90;99.90
48488;DHT22;34289;48.572;13.378;2022-08-21T09:34:11;22.10;99.90
48488;DHT22;34289;48.572;13.378;2022-08-21T09:36:44;22.00;99.90
48488;DHT22;34289;48.572;13.378;2022-08-21T09:39:12;21.70;99.90
48488;DHT22;34289;48.572;13.378;2022-08-21T09:41:39;21.40;99.90
48488;DHT22;34289;48.572;13.378;2022-08-21T09:44:07;21.40;99.90
48488;DHT22;34289;48.572;13.378;2022-08-21T09:46:33;21.70;99.90
48488;DHT22;34289;48.572;13.378;2022-08-21T09:49:02;21.90;99.90
48488;DHT22;34289;48.572;13.378;2022-08-21T09:51:33;22.10;99.90
48488;DHT22;34289;48.572;13.378;2022-08-21T09:56:37;22.70;99.90
48488;DHT22;34289;48.572;13.378;2022-08-21T09:59:32;22.20;99.90
48488;DHT22;34289;48.572;13.378;2022-08-21T10:02:00;22.00;99.90
48488;DHT22;34289;48.572;13.378;2022-08-21T10:05:35;21.90;99.90
48488;DHT22;34289;48.572;13.378;2022-08-21T10:07:37;22.20;99.90
48488;DHT22;34289;48.572;13.378;2022-08-21T10:10:14;22.60;99.90
48488;DHT22;34289;48.572;13.378;2022-08-21T10:34:45;23.10;99.90
48488;DHT22;34289;48.572;13.378;2022-08-21T10:37:18;23.20;99.90
48488;DHT22;34289;48.572;13.378;2022-08-21T10:42:42;24.00;99.90
48488;DHT22;34289;48.572;13.378;2022-08-21T10:48:24;23.40;99.90
48488;DHT22;34289;48.572;13.378;2022-08-21T10:51:20;23.50;99.90
48488;DHT22;34289;48.572;13.378;2022-08-21T10:59:18;23.60;99.90
48488;DHT22;34289;48.572;13.378;2022-08-21T11:02:09;23.80;99.90
48488;DHT22;34289;48.572;13.378;2022-08-21T11:10:03;23.80;99.90
48488;DHT22;34289;48.572;13.378;2022-08-21T11:13:05;23.40;99.90
48488;DHT22;34289;48.572;13.378;2022-08-21T11:15:48;23.60;99.90
48488;DHT22;34289;48.572;13.378;2022-08-21T11:18:51;23.90;99.90
48488;DHT22;34289;48.572;13.378;2022-08-21T11:27:21;24.00;99.90
48488;DHT22;34289;48.572;13.378;2022-08-21T11:29:51;24.00;99.90
48488;DHT22;34289;48.572;13.378;2022-08-21T11:32:38;24.00;99.90
48488;DHT22;34289;48.572;13.378;2022-08-21T11:43:21;24.50;99.90
48488;DHT22;34289;48.572;13.378;2022-08-21T11:45:53;24.80;99.90
48488;DHT22;34289;48.572;13.378;2022-08-21T11:50:51;25.20;99.90
48488;DHT22;34289;48.572;13.378;2022-08-21T11:55:55;25.70;99.90
48488;DHT22;34289;48.572;13.378;2022-08-21T11:58:33;25.80;99.90
48488;DHT22;34289;48.572;13.378;2022-08-21T12:01:05;25.60;99.90
48488;DHT22;34289;48.572;13.378;2022-08-21T12:03:35;25.40;99.90
48488;DHT22;34289;48.572;13.378;2022-08-21T12:06:07;25.80;99.90
48488;DHT22;34289;48.572;13.378;2022-08-21T12:08:34;26.40;99.90
48488;DHT22;34289;48.572;13.378;2022-08-21T12:19:11;26.20;99.90
48488;DHT22;34289;48.572;13.378;2022-08-21T12:29:48;24.70;99.90
48488;DHT22;34289;48.572;13.378;2022-08-21T12:34:57;24.80;99.90
48488;DHT22;34289;48.572;13.378;2022-08-21T12:37:39;24.50;99.90
48488;DHT22;34289;48.572;13.378;2022-08-21T12:43:33;23.90;99.90
48488;DHT22;34289;48.572;13.378;2022-08-21T12:46:00;23.90;99.90
48488;DHT22;34289;48.572;13.378;2022-08-21T12:48:45;24.10;99.90
48488;DHT22;34289;48.572;13.378;2022-08-21T12:56:16;24.10;99.90
48488;DHT22;34289;48.572;13.378;2022-08-21T12:58:48;24.10;99.90
48488;DHT22;34289;48.572;13.378;2022-08-21T13:03:45;24.10;99.90
48488;DHT22;34289;48.572;13.378;2022-08-21T13:06:17;24.00;99.90
48488;DHT22;34289;48.572;13.378;2022-08-21T13:08:46;24.00;99.90
48488;DHT22;34289;48.572;13.378;2022-08-21T13:11:16;24.30;99.90
48488;DHT22;34289;48.572;13.378;2022-08-21T13:13:47;24.70;99.90
48488;DHT22;34289;48.572;13.378;2022-08-21T13:16:22;24.80;99.90
48488;DHT22;34289;48.572;13.378;2022-08-21T13:18:58;25.00;99.90
48488;DHT22;34289;48.572;13.378;2022-08-21T13:21:43;25.20;99.90
48488;DHT22;34289;48.572;13.378;2022-08-21T13:24:24;25.10;99.90
48488;DHT22;34289;48.572;13.378;2022-08-21T13:26:51;25.20;99.90
48488;DHT22;34289;48.572;13.378;2022-08-21T13:29:23;25.30;99.90
48488;DHT22;34289;48.572;13.378;2022-08-21T13:31:54;25.30;99.90
48488;DHT22;34289;48.572;13.378;2022-08-21T13:34:31;25.20;99.90
48488;DHT22;34289;48.572;13.378;2022-08-21T13:37:01;25.10;99.90
48488;DHT22;34289;48.572;13.378;2022-08-21T13:39:28;25.10;99.90
48488;DHT22;34289;48.572;13.378;2022-08-21T13:41:56;25.00;99.90
48488;DHT22;34289;48.572;13.378;2022-08-21T13:44:24;25.10;99.90
48488;DHT22;34289;48.572;13.378;2022-08-21T13:46:59;25.00;99.90
48488;DHT22;34289;48.572;13.378;2022-08-21T13:49:46;24.90;99.90
48488;DHT22;34289;48.572;13.378;2022-08-21T13:52:16;24.50;99.90
48488;DHT22;34289;48.572;13.378;2022-08-21T13:54:42;24.10;99.90
48488;DHT22;34289;48.572;13.378;2022-08-21T13:57:32;23.90;99.90
48488;DHT22;34289;48.572;13.378;2022-08-21T14:00:24;23.60;99.90
48488;DHT22;34289;48.572;13.378;2022-08-21T14:02:52;23.50;99.90
48488;DHT22;34289;48.572;13.378;2022-08-21T14:05:28;23.50;99.90
48488;DHT22;34289;48.572;13.378;2022-08-21T14:08:24;23.40;99.90
48488;DHT22;34289;48.572;13.378;2022-08-21T14:10:52;23.30;99.90
48488;DHT22;34289;48.572;13.378;2022-08-21T14:16:00;23.00;99.90
48488;DHT22;34289;48.572;13.378;2022-08-21T14:18:27;22.80;99.90
48488;DHT22;34289;48.572;13.378;2022-08-21T14:21:05;22.70;99.90
48488;DHT22;34289;48.572;13.378;2022-08-21T14:23:31;22.60;99.90
48488;DHT22;34289;48.572;13.378;2022-08-21T14:26:00;22.70;99.90
48488;DHT22;34289;48.572;13.378;2022-08-21T14:28:34;22.80;99.90
48488;DHT22;34289;48.572;13.378;2022-08-21T14:31:19;22.90;99.90
48488;DHT22;34289;48.572;13.378;2022-08-21T14:33:48;23.00;99.90
48488;DHT22;34289;48.572;13.378;2022-08-21T14:36:15;23.10;99.90
48488;DHT22;34289;48.572;13.378;2022-08-21T14:38:41;23.20;99.90
48488;DHT22;34289;48.572;13.378;2022-08-21T14:41:26;23.30;99.90
48488;DHT22;34289;48.572;13.378;2022-08-21T14:43:55;23.20;99.90
48488;DHT22;34289;48.572;13.378;2022-08-21T14:46:27;23.40;99.90
48488;DHT22;34289;48.572;13.378;2022-08-21T14:48:53;23.20;99.90
48488;DHT22;34289;48.572;13.378;2022-08-21T14:51:19;23.10;99.90
48488;DHT22;34289;48.572;13.378;2022-08-21T14:53:46;23.00;99.90
48488;DHT22;34289;48.572;13.378;2022-08-21T14:56:12;22.90;99.90
48488;DHT22;34289;48.572;13.378;2022-08-21T14:58:46;22.60;99.90
48488;DHT22;34289;48.572;13.378;2022-08-21T15:01:14;22.40;99.90
48488;DHT22;34289;48.572;13.378;2022-08-21T15:03:41;22.20;99.90
48488;DHT22;34289;48.572;13.378;2022-08-21T15:06:08;22.10;99.90
48488;DHT22;34289;48.572;13.378;2022-08-21T15:08:34;22.00;99.90
48488;DHT22;34289;48.572;13.378;2022-08-21T15:11:01;22.00;99.90
48488;DHT22;34289;48.572;13.378;2022-08-21T15:13:27;21.90;99.90
48488;DHT22;34289;48.572;13.378;2022-08-21T15:15:54;21.90;99.90
48488;DHT22;34289;48.572;13.378;2022-08-21T15:18:22;21.80;99.90
48488;DHT22;34289;48.572;13.378;2022-08-21T15:20:49;21.80;99.90
48488;DHT22;34289;48.572;13.378;2022-08-21T15:23:15;21.80;99.90
48488;DHT22;34289;48.572;13.378;2022-08-21T15:25:43;21.90;99.90
48488;DHT22;34289;48.572;13.378;2022-08-21T15:28:10;21.80;99.90
48488;DHT22;34289;48.572;13.378;2022-08-21T15:30:37;21.80;99.90
48488;DHT22;34289;48.572;13.378;2022-08-21T15:33:04;21.90;99.90
48488;DHT22;34289;48.572;13.378;2022-08-21T15:35:30;22.00;99.90
48488;DHT22;34289;48.572;13.378;2022-08-21T15:37:56;22.10;99.90
48488;DHT22;34289;48.572;13.378;2022-08-21T15:40:23;22.30;99.90
48488;DHT22;34289;48.572;13.378;2022-08-21T15:42:59;22.60;99.90
48488;DHT22;34289;48.572;13.378;2022-08-21T15:45:25;23.60;99.90
48488;DHT22;34289;48.572;13.378;2022-08-21T15:47:52;26.30;99.90
48488;DHT22;34289;48.572;13.378;2022-08-21T15:50:18;30.00;99.90
48488;DHT22;34289;48.572;13.378;2022-08-21T15:52:44;32.70;94.30
48488;DHT22;34289;48.572;13.378;2022-08-21T15:55:10;35.30;92.90
48488;DHT22;34289;48.572;13.378;2022-08-21T15:57:37;37.00;84.90
48488;DHT22;34289;48.572;13.378;2022-08-21T16:00:16;37.70;78.80
48488;DHT22;34289;48.572;13.378;2022-08-21T16:02:47;37.90;74.60
48488;DHT22;34289;48.572;13.378;2022-08-21T16:05:13;38.00;72.40
48488;DHT22;34289;48.572;13.378;2022-08-21T16:07:42;37.70;73.40
48488;DHT22;34289;48.572;13.378;2022-08-21T16:10:08;37.20;72.50
48488;DHT22;34289;48.572;13.378;2022-08-21T16:12:39;36.60;73.70
48488;DHT22;34289;48.572;13.378;2022-08-21T16:15:11;34.10;74.30
48488;DHT22;34289;48.572;13.378;2022-08-21T16:17:41;32.00;81.10
48488;DHT22;34289;48.572;13.378;2022-08-21T16:20:11;30.20;83.00
48488;DHT22;34289;48.572;13.378;2022-08-21T16:22:37;29.20;84.00
48488;DHT22;34289;48.572;13.378;2022-08-21T16:25:04;28.00;87.70
48488;DHT22;34289;48.572;13.378;2022-08-21T16:27:31;27.70;89.70
48488;DHT22;34289;48.572;13.378;2022-08-21T16:29:57;27.30;92.20
48488;DHT22;34289;48.572;13.378;2022-08-21T16:32:25;26.80;93.30
48488;DHT22;34289;48.572;13.378;2022-08-21T16:34:50;26.30;95.60
48488;DHT22;34289;48.572;13.378;2022-08-21T16:37:19;26.80;96.20
48488;DHT22;34289;48.572;13.378;2022-08-21T16:39:45;28.70;94.70
48488;DHT22;34289;48.572;13.378;2022-08-21T16:42:17;31.10;92.60
48488;DHT22;34289;48.572;13.378;2022-08-21T16:44:44;32.80;86.40
48488;DHT22;34289;48.572;13.378;2022-08-21T16:47:09;34.00;86.10
48488;DHT22;34289;48.572;13.378;2022-08-21T16:49:35;34.80;85.20
48488;DHT22;34289;48.572;13.378;2022-08-21T16:52:02;35.10;84.90
48488;DHT22;34289;48.572;13.378;2022-08-21T16:54:27;34.20;86.20
48488;DHT22;34289;48.572;13.378;2022-08-21T16:56:55;32.40;89.10
48488;DHT22;34289;48.572;13.378;2022-08-21T16:59:21;30.70;91.50
48488;DHT22;34289;48.572;13.378;2022-08-21T17:01:47;28.80;93.30
48488;DHT22;34289;48.572;13.378;2022-08-21T17:04:13;28.10;93.10
48488;DHT22;34289;48.572;13.378;2022-08-21T17:06:39;27.10;93.40
48488;DHT22;34289;48.572;13.378;2022-08-21T17:09:04;26.40;95.40
48488;DHT22;34289;48.572;13.378;2022-08-21T17:11:40;25.80;95.70
48488;DHT22;34289;48.572;13.378;2022-08-21T17:14:18;25.30;94.30